createdAt,value
2018-01-10T00:00:19.055Z,4.67
2018-01-10T00:02:48.226Z,4.66
2018-01-10T00:05:17.389Z,4.69
2018-01-10T00:07:46.584Z,4.71
2018-01-10T00:10:15.796Z,4.71
2018-01-10T00:12:44.915Z,4.68
2018-01-10T00:15:14.116Z,4.65
2018-01-10T00:17:43.284Z,4.59
2018-01-10T00:20:12.426Z,4.54
2018-01-10T00:22:41.684Z,4.54
2018-01-10T00:25:11.612Z,4.53
2018-01-10T00:27:40.810Z,4.51
2018-01-10T00:30:10.753Z,4.50
2018-01-10T00:32:39.929Z,4.48
2018-01-10T00:35:09.065Z,4.48
2018-01-10T00:37:38.332Z,4.42
2018-01-10T00:40:07.517Z,4.40
2018-01-10T00:42:36.837Z,4.39
2018-01-10T00:45:06.075Z,4.35
2018-01-10T00:47:35.264Z,4.34
2018-01-10T00:50:04.542Z,4.34
2018-01-10T00:52:33.761Z,4.35
2018-01-10T00:55:02.926Z,4.33
2018-01-10T00:57:32.209Z,4.33
2018-01-10T01:00:01.817Z,4.29
2018-01-10T01:02:31.015Z,4.26
2018-01-10T01:05:00.364Z,4.19
2018-01-10T01:07:30.132Z,4.22
2018-01-10T01:09:59.353Z,4.25
2018-01-10T01:12:29.353Z,4.25
2018-01-10T01:14:58.644Z,4.26
2018-01-10T01:17:27.953Z,4.26
2018-01-10T01:19:57.183Z,4.24
2018-01-10T01:22:26.410Z,4.25
2018-01-10T01:24:55.874Z,4.25
2018-01-10T01:27:25.085Z,4.21
2018-01-10T01:29:54.252Z,4.23
2018-01-10T01:32:23.478Z,4.27
2018-01-10T01:34:52.658Z,4.22
2018-01-10T01:37:22.649Z,4.25
2018-01-10T01:39:51.865Z,4.28
2018-01-10T01:42:21.133Z,4.33
2018-01-10T01:44:51.101Z,4.30
2018-01-10T01:47:20.274Z,4.35
2018-01-10T01:49:49.463Z,4.35
2018-01-10T01:52:19.453Z,4.34
2018-01-10T01:54:48.603Z,4.33
2018-01-10T01:57:17.765Z,4.33
2018-01-10T01:59:47.085Z,4.22
2018-01-10T02:02:16.257Z,4.25
2018-01-10T02:04:45.442Z,4.17
2018-01-10T02:07:14.676Z,4.20
2018-01-10T02:09:43.864Z,4.20
2018-01-10T02:12:13.019Z,4.20
2018-01-10T02:14:42.253Z,4.21
2018-01-10T02:17:12.189Z,4.17
2018-01-10T02:19:41.361Z,4.28
2018-01-10T02:22:10.537Z,4.30
2018-01-10T02:24:39.680Z,4.34
2018-01-10T02:27:08.856Z,4.31
2018-01-10T02:29:38.541Z,4.25
2018-01-10T02:32:07.694Z,4.29
2018-01-10T02:34:36.882Z,4.31
2018-01-10T02:37:06.081Z,4.32
2018-01-10T02:39:35.249Z,4.38
2018-01-10T02:42:04.430Z,4.37
2018-01-10T02:44:33.652Z,4.36
2018-01-10T02:47:03.567Z,4.34
2018-01-10T02:49:33.551Z,4.30
2018-01-10T02:52:02.783Z,4.30
2018-01-10T02:54:31.993Z,4.28
2018-01-10T02:57:01.216Z,4.26
2018-01-10T02:59:30.497Z,4.33
2018-01-10T03:01:59.717Z,4.39
2018-01-10T03:04:29.018Z,4.42
2018-01-10T03:06:58.243Z,4.37
2018-01-10T03:09:27.444Z,4.29
2018-01-10T03:11:56.640Z,4.26
2018-01-10T03:14:25.820Z,4.21
2018-01-10T03:16:55.949Z,4.27
2018-01-10T03:19:25.215Z,4.26
2018-01-10T03:21:54.449Z,4.27
2018-01-10T03:24:23.636Z,4.30
2018-01-10T03:26:52.829Z,4.31
2018-01-10T03:29:22.027Z,4.33
2018-01-10T03:31:51.204Z,4.24
2018-01-10T03:34:20.378Z,4.18
2018-01-10T03:36:49.861Z,4.24
2018-01-10T03:39:19.810Z,4.24
2018-01-10T03:41:49.013Z,4.27
2018-01-10T03:44:18.212Z,4.31
2018-01-10T03:46:48.125Z,4.36
2018-01-10T03:49:18.068Z,4.36
2018-01-10T03:51:48.087Z,4.30
2018-01-10T03:54:18.033Z,4.27
2018-01-10T03:56:47.198Z,4.37
2018-01-10T03:59:16.798Z,4.43
2018-01-10T04:01:45.924Z,4.47
2018-01-10T04:04:15.141Z,4.53
2018-01-10T04:06:44.322Z,4.37
2018-01-10T04:09:13.476Z,4.29
2018-01-10T04:11:42.689Z,4.19
2018-01-10T04:14:12.217Z,4.15
2018-01-10T04:16:41.390Z,4.19
2018-01-10T04:19:10.537Z,4.19
2018-01-10T04:21:40.519Z,4.16
2018-01-10T04:24:09.684Z,4.11
2018-01-10T04:26:39.650Z,4.12
2018-01-10T04:29:08.978Z,4.14
2018-01-10T04:31:38.138Z,4.18
2018-01-10T04:34:08.131Z,4.19
2018-01-10T04:36:37.506Z,4.20
2018-01-10T04:39:06.713Z,4.16
2018-01-10T04:41:36.037Z,4.09
2018-01-10T04:44:05.418Z,4.08
2018-01-10T04:46:35.364Z,4.07
2018-01-10T04:49:04.605Z,4.05
2018-01-10T04:51:33.861Z,4.06
2018-01-10T04:54:03.957Z,4.02
2018-01-10T04:56:33.282Z,4.05
2018-01-10T04:59:02.521Z,4.09
2018-01-10T05:01:31.738Z,4.11
2018-01-10T05:04:00.960Z,4.12
2018-01-10T05:06:30.192Z,4.14
2018-01-10T05:08:59.378Z,4.16
2018-01-10T05:11:28.799Z,4.16
2018-01-10T05:13:58.032Z,4.14
2018-01-10T05:16:27.212Z,4.02
2018-01-10T05:18:56.472Z,4.09
2018-01-10T05:21:27.206Z,3.98
2018-01-10T05:23:56.360Z,4.07
2018-01-10T05:26:25.526Z,4.05
2018-01-10T05:28:55.005Z,4.08
2018-01-10T05:31:24.154Z,4.17
2018-01-10T05:33:53.274Z,4.15
2018-01-10T05:36:22.472Z,4.19
2018-01-10T05:38:51.630Z,4.24
2018-01-10T05:41:20.726Z,4.24
2018-01-10T05:43:50.242Z,4.29
2018-01-10T05:46:20.170Z,4.34
2018-01-10T05:48:49.331Z,4.34
2018-01-10T05:51:18.537Z,4.43
2018-01-10T05:53:47.670Z,4.46
2018-01-10T05:56:16.804Z,4.47
2018-01-10T05:58:47.476Z,4.51
2018-01-10T06:01:17.167Z,4.54
2018-01-10T06:03:46.368Z,4.60
2018-01-10T06:06:15.610Z,4.67
2018-01-10T06:08:45.501Z,4.72
2018-01-10T06:11:14.705Z,4.79
2018-01-10T06:13:43.899Z,4.85
2018-01-10T06:16:13.814Z,4.92
2018-01-10T06:18:42.966Z,4.97
2018-01-10T06:21:12.106Z,5.01
2018-01-10T06:23:42.062Z,5.07
2018-01-10T06:26:11.203Z,5.11
2018-01-10T06:28:40.337Z,5.16
2018-01-10T06:31:09.433Z,5.20
2018-01-10T06:33:38.551Z,5.20
2018-01-10T06:36:07.937Z,5.22
2018-01-10T06:38:37.180Z,5.26
2018-01-10T06:41:06.325Z,5.25
2018-01-10T06:43:35.930Z,5.16
2018-01-10T06:46:07.931Z,5.17
2018-01-10T06:48:37.740Z,5.22
2018-01-10T06:51:06.914Z,5.20
2018-01-10T06:53:36.138Z,5.23
2018-01-10T06:56:05.803Z,5.22
2018-01-10T06:58:35.066Z,5.19
2018-01-10T07:01:04.276Z,5.15
2018-01-10T07:03:34.275Z,5.11
2018-01-10T07:06:03.507Z,5.09
2018-01-10T07:08:32.759Z,5.09
2018-01-10T07:11:02.035Z,5.07
2018-01-10T07:13:35.670Z,5.03
2018-01-10T07:16:05.725Z,4.98
2018-01-10T07:18:34.943Z,4.94
2018-01-10T07:21:04.045Z,4.96
2018-01-10T07:23:33.261Z,5.03
2018-01-10T07:26:03.873Z,4.95
2018-01-10T07:28:33.068Z,4.89
2018-01-10T07:31:02.264Z,4.81
2018-01-10T07:33:31.588Z,4.77
2018-01-10T07:36:00.945Z,4.78
2018-01-10T07:38:30.294Z,4.77
2018-01-10T07:40:59.510Z,4.77
2018-01-10T07:43:28.666Z,4.75
2018-01-10T07:45:57.835Z,4.73
2018-01-10T07:48:26.984Z,4.75
2018-01-10T07:50:56.933Z,4.73
2018-01-10T07:53:28.071Z,4.68
2018-01-10T07:56:08.097Z,4.70
2018-01-10T07:58:38.658Z,4.72
2018-01-10T08:01:09.388Z,4.75
2018-01-10T08:03:40.059Z,4.77
2018-01-10T08:06:10.006Z,4.80
2018-01-10T08:08:39.185Z,4.83
2018-01-10T08:11:08.510Z,4.85
2018-01-10T08:13:37.671Z,4.83
2018-01-10T08:16:06.800Z,4.82
2018-01-10T08:18:36.180Z,4.87
2018-01-10T08:21:05.624Z,4.93
2018-01-10T08:23:35.445Z,4.97
2018-01-10T08:26:04.810Z,5.05
2018-01-10T08:28:34.250Z,5.07
2018-01-10T08:31:03.543Z,5.15
2018-01-10T08:33:32.863Z,5.17
2018-01-10T08:36:02.158Z,5.20
2018-01-10T08:38:31.412Z,5.28
2018-01-10T08:41:00.722Z,5.26
2018-01-10T08:43:30.017Z,5.24
2018-01-10T08:45:59.241Z,5.24
2018-01-10T08:48:28.441Z,5.23
2018-01-10T08:50:57.640Z,5.26
2018-01-10T08:53:26.893Z,5.27
2018-01-10T08:55:56.109Z,5.25
2018-01-10T08:58:25.265Z,5.28
2018-01-10T09:00:55.170Z,5.25
2018-01-10T09:03:24.395Z,5.31
2018-01-10T09:05:54.307Z,5.34
2018-01-10T09:08:23.508Z,5.44
2018-01-10T09:10:52.749Z,5.49
2018-01-10T09:13:21.885Z,5.57
2018-01-10T09:15:51.040Z,5.64
2018-01-10T09:18:20.197Z,5.65
2018-01-10T09:20:49.327Z,5.74
2018-01-10T09:23:18.618Z,5.84
2018-01-10T09:25:48.569Z,6.01
2018-01-10T09:28:17.782Z,6.26
2018-01-10T09:30:46.937Z,6.44
2018-01-10T09:33:16.135Z,6.45
2018-01-10T09:35:46.058Z,6.45
2018-01-10T09:38:15.189Z,6.42
2018-01-10T09:40:44.382Z,6.57
2018-01-10T09:43:13.659Z,6.62
2018-01-10T09:45:42.792Z,6.66
2018-01-10T09:48:11.999Z,6.78
2018-01-10T09:50:41.144Z,6.99
2018-01-10T09:53:10.351Z,7.35
2018-01-10T09:55:39.676Z,7.59
2018-01-10T09:58:09.563Z,7.60
2018-01-10T10:00:38.806Z,7.54
2018-01-10T10:03:08.209Z,7.71
2018-01-10T10:05:37.393Z,7.81
2018-01-10T10:08:06.539Z,7.79
2018-01-10T10:10:35.866Z,7.63
2018-01-10T10:13:05.089Z,7.58
2018-01-10T10:15:34.301Z,7.60
2018-01-10T10:18:03.582Z,7.44
2018-01-10T10:20:32.795Z,7.16
2018-01-10T10:23:02.030Z,7.22
2018-01-10T10:25:31.254Z,7.23
2018-01-10T10:28:00.466Z,7.34
2018-01-10T10:30:29.783Z,7.56
2018-01-10T10:32:59.765Z,7.76
2018-01-10T10:35:28.980Z,7.95
2018-01-10T10:37:59.261Z,8.10
2018-01-10T10:40:29.354Z,8.26
2018-01-10T10:42:58.534Z,8.39
2018-01-10T10:45:27.761Z,8.54
2018-01-10T10:47:57.090Z,8.65
2018-01-10T10:50:26.216Z,8.62
2018-01-10T10:52:55.354Z,8.50
2018-01-10T10:55:24.545Z,8.36
2018-01-10T10:57:53.707Z,8.31
2018-01-10T11:00:22.881Z,7.97
2018-01-10T11:02:53.105Z,7.85
2018-01-10T11:05:22.233Z,7.76
2018-01-10T11:07:51.401Z,7.83
2018-01-10T11:10:20.581Z,7.92
2018-01-10T11:12:49.745Z,7.99
2018-01-10T11:15:18.850Z,7.96
2018-01-10T11:17:47.991Z,7.87
2018-01-10T11:20:17.085Z,7.79
2018-01-10T11:22:46.949Z,7.65
2018-01-10T11:25:16.142Z,7.53
2018-01-10T11:27:45.451Z,7.38
2018-01-10T11:30:14.618Z,7.18
2018-01-10T11:32:43.785Z,7.07
2018-01-10T11:35:12.988Z,7.01
2018-01-10T11:37:42.162Z,7.00
2018-01-10T11:40:11.349Z,7.00
2018-01-10T11:42:40.486Z,6.98
2018-01-10T11:45:10.538Z,6.99
2018-01-10T11:47:39.789Z,7.07
2018-01-10T11:50:08.959Z,7.07
2018-01-10T11:52:38.190Z,7.03
2018-01-10T11:55:07.492Z,6.99
2018-01-10T11:57:36.659Z,6.92
2018-01-10T12:00:05.886Z,6.91
2018-01-10T12:02:35.286Z,6.95
2018-01-10T12:05:05.040Z,6.95
2018-01-10T12:07:34.421Z,6.94
2018-01-10T12:10:03.703Z,6.96
2018-01-10T12:12:32.954Z,6.99
2018-01-10T12:15:02.170Z,7.01
2018-01-10T12:17:31.571Z,7.15
2018-01-10T12:20:01.617Z,7.13
2018-01-10T12:22:30.992Z,7.15
2018-01-10T12:25:01.945Z,7.26
2018-01-10T12:27:31.183Z,7.38
2018-01-10T12:30:00.474Z,7.45
2018-01-10T12:32:29.756Z,7.29
2018-01-10T12:35:00.215Z,7.44
2018-01-10T12:37:29.765Z,7.62
2018-01-10T12:39:59.860Z,7.61
2018-01-10T12:42:29.902Z,7.70
2018-01-10T12:44:59.941Z,7.87
2018-01-10T12:47:29.530Z,7.90
2018-01-10T12:49:58.831Z,7.93
2018-01-10T12:52:28.134Z,8.01
2018-01-10T12:54:57.631Z,7.94
2018-01-10T12:57:26.852Z,7.88
2018-01-10T12:59:56.054Z,7.83
2018-01-10T13:02:25.450Z,7.87
2018-01-10T13:04:55.384Z,7.81
2018-01-10T13:07:24.556Z,7.76
2018-01-10T13:09:53.736Z,7.71
2018-01-10T13:12:22.874Z,7.71
2018-01-10T13:14:52.170Z,7.61
2018-01-10T13:17:21.520Z,7.52
2018-01-10T13:19:50.666Z,7.40
2018-01-10T13:22:19.805Z,7.16
2018-01-10T13:24:49.272Z,6.97
2018-01-10T13:27:19.129Z,6.79
2018-01-10T13:29:48.230Z,6.70
2018-01-10T13:32:17.369Z,6.61
2018-01-10T13:34:46.523Z,6.61
2018-01-10T13:37:15.666Z,6.57
2018-01-10T13:39:44.835Z,6.55
2018-01-10T13:42:13.956Z,6.56
2018-01-10T13:44:43.088Z,6.59
2018-01-10T13:47:13.021Z,6.62
2018-01-10T13:49:42.118Z,6.66
2018-01-10T13:52:11.258Z,6.62
2018-01-10T13:54:41.043Z,6.71
2018-01-10T13:57:10.267Z,6.73
2018-01-10T13:59:39.618Z,6.73
2018-01-10T14:02:09.690Z,6.73
2018-01-10T14:04:38.903Z,6.60
2018-01-10T14:07:08.878Z,6.55
2018-01-10T14:09:38.250Z,6.69
2018-01-10T14:12:07.674Z,6.65
2018-01-10T14:14:36.862Z,6.61
2018-01-10T14:17:06.154Z,6.62
2018-01-10T14:19:36.240Z,6.65
2018-01-10T14:22:05.573Z,6.68
2018-01-10T14:24:34.830Z,6.64
2018-01-10T14:27:05.298Z,6.62
2018-01-10T14:29:34.582Z,6.61
2018-01-10T14:32:04.312Z,6.64
2018-01-10T14:34:33.529Z,6.45
2018-01-10T14:37:02.767Z,6.37
2018-01-10T14:39:31.993Z,6.38
2018-01-10T14:42:01.979Z,6.43
2018-01-10T14:44:31.303Z,6.40
2018-01-10T14:47:00.707Z,6.44
2018-01-10T14:49:30.107Z,6.43
2018-01-10T14:52:00.253Z,6.44
2018-01-10T14:54:29.606Z,6.47
2018-01-10T14:56:59.014Z,6.44
2018-01-10T14:59:28.149Z,6.46
2018-01-10T15:01:57.891Z,6.53
2018-01-10T15:04:27.160Z,6.55
2018-01-10T15:06:56.344Z,6.56
2018-01-10T15:09:25.839Z,6.55
2018-01-10T15:11:56.880Z,6.49
2018-01-10T15:14:26.813Z,6.39
2018-01-10T15:16:56.015Z,6.34
2018-01-10T15:19:25.161Z,6.32
2018-01-10T15:21:54.330Z,6.30
2018-01-10T15:24:23.472Z,6.30
2018-01-10T15:26:52.653Z,6.31
2018-01-10T15:29:21.789Z,6.32
2018-01-10T15:31:50.912Z,6.29
2018-01-10T15:34:21.049Z,6.22
2018-01-10T15:36:50.282Z,6.24
2018-01-10T15:39:19.433Z,6.18
2018-01-10T15:41:48.594Z,6.19
2018-01-10T15:44:17.909Z,6.17
2018-01-10T15:46:47.063Z,6.16
2018-01-10T15:49:16.194Z,6.19
2018-01-10T15:51:45.455Z,6.18
2018-01-10T15:54:14.553Z,6.19
2018-01-10T15:56:43.785Z,6.20
2018-01-10T15:59:12.971Z,6.21
2018-01-10T16:01:42.267Z,6.25
2018-01-10T16:04:11.447Z,6.28
2018-01-10T16:06:40.769Z,6.31
2018-01-10T16:09:10.055Z,6.33
2018-01-10T16:11:39.243Z,6.36
2018-01-10T16:14:08.746Z,6.36
2018-01-10T16:16:37.912Z,6.40
2018-01-10T16:19:07.198Z,6.38
2018-01-10T16:21:37.062Z,6.26
2018-01-10T16:24:06.223Z,6.27
2018-01-10T16:26:35.477Z,6.29
2018-01-10T16:29:04.828Z,6.31
2018-01-10T16:31:34.265Z,6.27
2018-01-10T16:34:03.766Z,6.22
2018-01-10T16:36:33.154Z,6.17
2018-01-10T16:39:02.847Z,6.09
2018-01-10T16:41:32.168Z,6.17
2018-01-10T16:44:01.444Z,6.24
2018-01-10T16:46:30.773Z,6.14
2018-01-10T16:49:00.996Z,6.17
2018-01-10T16:51:30.603Z,6.14
2018-01-10T16:54:00.735Z,6.11
2018-01-10T16:56:30.002Z,5.98
2018-01-10T16:59:00.560Z,6.03
2018-01-10T17:01:30.521Z,5.99
2018-01-10T17:03:59.878Z,5.97
2018-01-10T17:06:29.342Z,5.91
2018-01-10T17:08:58.675Z,5.91
2018-01-10T17:11:27.977Z,5.93
2018-01-10T17:13:57.632Z,5.95
2018-01-10T17:16:28.884Z,5.98
2018-01-10T17:18:58.124Z,5.98
2018-01-10T17:21:28.078Z,5.95
2018-01-10T17:23:58.449Z,5.95
2018-01-10T17:26:27.693Z,5.95
2018-01-10T17:28:56.894Z,5.98
2018-01-10T17:31:26.038Z,6.02
2018-01-10T17:33:55.994Z,6.04
2018-01-10T17:36:25.228Z,6.08
2018-01-10T17:38:54.395Z,6.04
2018-01-10T17:41:24.356Z,6.04
2018-01-10T17:43:53.781Z,6.09
2018-01-10T17:46:22.914Z,6.14
2018-01-10T17:48:52.394Z,6.14
2018-01-10T17:51:21.588Z,6.18
2018-01-10T17:53:50.697Z,6.21
2018-01-10T17:56:19.882Z,6.22
2018-01-10T17:58:49.001Z,6.13
2018-01-10T18:01:18.976Z,6.13
2018-01-10T18:03:48.196Z,6.11
2018-01-10T18:06:17.333Z,6.17
2018-01-10T18:08:46.457Z,6.14
2018-01-10T18:11:16.450Z,6.15
2018-01-10T18:13:45.789Z,5.99
2018-01-10T18:16:14.954Z,5.98
2018-01-10T18:18:44.126Z,6.03
2018-01-10T18:21:14.060Z,6.07
2018-01-10T18:23:43.983Z,6.15
2018-01-10T18:26:13.946Z,6.17
2018-01-10T18:28:43.159Z,6.19
2018-01-10T18:31:12.316Z,6.10
2018-01-10T18:33:41.518Z,5.98
2018-01-10T18:36:10.638Z,6.04
2018-01-10T18:38:40.636Z,6.10
2018-01-10T18:41:09.854Z,6.18
2018-01-10T18:46:15.163Z,6.29
2018-01-10T18:48:45.154Z,6.32
2018-01-10T18:51:14.404Z,6.31
2018-01-10T18:53:44.367Z,6.27
2018-01-10T18:56:13.527Z,6.23
2018-01-10T18:58:42.683Z,6.31
2018-01-10T19:01:12.054Z,6.32
2018-01-10T19:03:41.327Z,6.34
2018-01-10T19:06:10.528Z,6.32
2018-01-10T19:08:40.756Z,6.37
2018-01-10T19:11:09.936Z,6.42
2018-01-10T19:13:39.089Z,6.30
2018-01-10T19:16:09.107Z,6.38
2018-01-10T19:18:38.263Z,6.36
2018-01-10T19:21:07.494Z,6.40
2018-01-10T19:23:37.145Z,6.44
2018-01-10T19:26:06.301Z,6.41
2018-01-10T19:28:35.507Z,6.35
2018-01-10T19:31:05.012Z,6.35
2018-01-10T19:33:34.393Z,6.28
2018-01-10T19:36:03.609Z,6.34
2018-01-10T19:38:32.890Z,6.66
2018-01-10T19:41:02.111Z,6.73
2018-01-10T19:43:32.006Z,6.69
2018-01-10T19:46:01.430Z,6.77
2018-01-10T19:48:32.403Z,6.84
2018-01-10T19:51:01.832Z,6.85
2018-01-10T19:53:31.237Z,6.58
2018-01-10T19:56:01.398Z,6.57
2018-01-10T19:58:30.827Z,6.46
2018-01-10T20:01:00.815Z,6.43
2018-01-10T20:03:30.790Z,6.60
2018-01-10T20:06:00.951Z,6.80
2018-01-10T20:08:32.101Z,7.01
2018-01-10T20:11:03.716Z,6.96
2018-01-10T20:13:33.713Z,6.88
2018-01-10T20:16:03.282Z,6.88
2018-01-10T20:18:32.519Z,6.89
2018-01-10T20:21:01.750Z,6.79
2018-01-10T20:23:31.054Z,6.64
2018-01-10T20:26:01.429Z,6.58
2018-01-10T20:28:33.634Z,6.46
2018-01-10T20:31:03.072Z,6.38
2018-01-10T20:33:40.652Z,6.30
2018-01-10T20:36:12.615Z,6.29
2018-01-10T20:38:41.812Z,6.30
2018-01-10T20:41:10.944Z,6.25
2018-01-10T20:43:40.896Z,6.10
2018-01-10T20:46:10.180Z,6.03
2018-01-10T20:48:43.572Z,6.02
2018-01-10T20:51:12.852Z,5.86
2018-01-10T20:53:42.064Z,5.77
2018-01-10T20:56:11.431Z,5.78
2018-01-10T20:58:40.974Z,5.69
2018-01-10T21:01:10.710Z,5.72
2018-01-10T21:03:39.997Z,5.68
2018-01-10T21:06:10.050Z,5.64
2018-01-10T21:08:40.224Z,5.73
2018-01-10T21:11:11.602Z,5.75
2018-01-10T21:13:41.012Z,5.80
2018-01-10T21:16:10.268Z,5.75
2018-01-10T21:18:39.666Z,5.65
2018-01-10T21:21:08.895Z,5.71
2018-01-10T21:23:39.040Z,5.69
2018-01-10T21:26:08.365Z,5.65
2018-01-10T21:28:37.979Z,5.57
2018-01-10T21:31:07.740Z,5.61
2018-01-10T21:33:37.130Z,5.67
2018-01-10T21:36:06.644Z,5.66
2018-01-10T21:38:35.851Z,5.63
2018-01-10T21:41:05.300Z,5.60
2018-01-10T21:43:34.805Z,5.56
2018-01-10T21:46:04.058Z,5.57
2018-01-10T21:48:34.595Z,5.56
2018-01-10T21:51:04.406Z,5.59
2018-01-10T21:53:33.746Z,5.58
2018-01-10T21:56:03.069Z,5.57
2018-01-10T21:58:34.087Z,5.52
2018-01-10T22:01:03.383Z,5.55
2018-01-10T22:03:32.591Z,5.49
2018-01-10T22:06:03.023Z,5.32
2018-01-10T22:08:32.310Z,5.37
2018-01-10T22:11:01.751Z,5.43
2018-01-10T22:13:31.116Z,5.41
2018-01-10T22:16:00.456Z,5.49
2018-01-10T22:18:30.570Z,5.52
2018-01-10T22:21:00.153Z,5.52
2018-01-10T22:23:30.995Z,5.60
2018-01-10T22:26:01.194Z,5.65
2018-01-10T22:28:31.427Z,5.65
2018-01-10T22:31:00.818Z,5.68
2018-01-10T22:33:32.040Z,5.61
2018-01-10T22:36:01.273Z,5.55
2018-01-10T22:38:30.477Z,5.58
2018-01-10T22:40:59.878Z,5.48
2018-01-10T22:43:29.180Z,5.44
2018-01-10T22:45:59.180Z,5.33
2018-01-10T22:48:28.504Z,5.24
2018-01-10T22:51:00.649Z,5.28
2018-01-10T22:53:29.955Z,5.28
2018-01-10T22:55:59.161Z,5.31
2018-01-10T22:58:33.276Z,5.37
2018-01-10T23:01:02.628Z,5.33
2018-01-10T23:03:32.298Z,5.28
2018-01-10T23:06:02.455Z,5.30
2018-01-10T23:08:32.517Z,5.31
2018-01-10T23:11:02.039Z,5.42
2018-01-10T23:13:31.557Z,5.30
2018-01-10T23:16:01.564Z,5.36
2018-01-10T23:18:31.691Z,5.36
2018-01-10T23:21:04.017Z,5.46
2018-01-10T23:23:34.009Z,5.42
2018-01-10T23:26:03.202Z,5.51
2018-01-10T23:28:32.712Z,5.58
2018-01-10T23:31:06.354Z,5.68
2018-01-10T23:33:36.310Z,5.68
2018-01-10T23:36:06.396Z,5.76
2018-01-10T23:38:35.863Z,5.89
2018-01-10T23:41:05.145Z,5.86
2018-01-10T23:43:36.469Z,5.78
2018-01-10T23:46:06.678Z,5.71
2018-01-10T23:48:35.934Z,5.83
2018-01-10T23:51:05.151Z,5.91
2018-01-10T23:53:34.701Z,5.91
2018-01-10T23:56:04.032Z,5.88
2018-01-10T23:58:33.293Z,5.87
